sensor_id;sensor_type;location;lat;lon;timestamp;P1;durP1;ratioP1;P2;durP2;ratioP2
74894;SDS011;63447;49.446;8.666;2024-03-07T00:00:11;33.55;;;17.35;;
74894;SDS011;63447;49.446;8.666;2024-03-07T00:02:42;32.45;;;17.13;;
74894;SDS011;63447;49.446;8.666;2024-03-07T00:07:47;32.30;;;16.20;;
74894;SDS011;63447;49.446;8.666;2024-03-07T00:10:12;33.45;;;16.80;;
74894;SDS011;63447;49.446;8.666;2024-03-07T00:12:41;33.85;;;17.17;;
74894;SDS011;63447;49.446;8.666;2024-03-07T00:15:08;35.08;;;18.45;;
74894;SDS011;63447;49.446;8.666;2024-03-07T00:17:38;35.28;;;17.90;;
74894;SDS011;63447;49.446;8.666;2024-03-07T00:20:04;32.60;;;16.35;;
74894;SDS011;63447;49.446;8.666;2024-03-07T00:22:34;35.60;;;17.73;;
74894;SDS011;63447;49.446;8.666;2024-03-07T00:25:00;33.88;;;17.73;;
74894;SDS011;63447;49.446;8.666;2024-03-07T00:27:26;35.88;;;19.63;;
74894;SDS011;63447;49.446;8.666;2024-03-07T00:29:51;34.25;;;18.33;;
74894;SDS011;63447;49.446;8.666;2024-03-07T00:32:20;35.63;;;18.58;;
74894;SDS011;63447;49.446;8.666;2024-03-07T00:34:48;32.88;;;17.40;;
74894;SDS011;63447;49.446;8.666;2024-03-07T00:37:16;37.33;;;18.65;;
74894;SDS011;63447;49.446;8.666;2024-03-07T00:39:44;35.90;;;18.73;;
74894;SDS011;63447;49.446;8.666;2024-03-07T00:42:12;32.35;;;17.15;;
74894;SDS011;63447;49.446;8.666;2024-03-07T00:44:37;39.43;;;18.50;;
74894;SDS011;63447;49.446;8.666;2024-03-07T00:47:05;35.00;;;17.17;;
74894;SDS011;63447;49.446;8.666;2024-03-07T00:49:35;35.25;;;18.27;;
74894;SDS011;63447;49.446;8.666;2024-03-07T00:52:01;33.50;;;17.33;;
74894;SDS011;63447;49.446;8.666;2024-03-07T00:54:29;33.85;;;17.15;;
74894;SDS011;63447;49.446;8.666;2024-03-07T00:56:55;32.13;;;16.77;;
74894;SDS011;63447;49.446;8.666;2024-03-07T00:59:20;33.73;;;18.33;;
74894;SDS011;63447;49.446;8.666;2024-03-07T01:01:45;33.25;;;17.77;;
74894;SDS011;63447;49.446;8.666;2024-03-07T01:04:14;33.97;;;17.52;;
74894;SDS011;63447;49.446;8.666;2024-03-07T01:06:39;33.03;;;16.67;;
74894;SDS011;63447;49.446;8.666;2024-03-07T01:09:06;34.28;;;17.08;;
74894;SDS011;63447;49.446;8.666;2024-03-07T01:11:38;33.53;;;17.02;;
74894;SDS011;63447;49.446;8.666;2024-03-07T01:14:07;35.70;;;18.45;;
74894;SDS011;63447;49.446;8.666;2024-03-07T01:16:34;36.03;;;17.45;;
74894;SDS011;63447;49.446;8.666;2024-03-07T01:19:02;32.00;;;17.25;;
74894;SDS011;63447;49.446;8.666;2024-03-07T01:21:33;33.58;;;16.17;;
74894;SDS011;63447;49.446;8.666;2024-03-07T01:24:01;31.42;;;17.10;;
74894;SDS011;63447;49.446;8.666;2024-03-07T01:26:29;31.17;;;16.92;;
74894;SDS011;63447;49.446;8.666;2024-03-07T01:29:01;30.00;;;16.70;;
74894;SDS011;63447;49.446;8.666;2024-03-07T01:31:31;32.67;;;16.75;;
74894;SDS011;63447;49.446;8.666;2024-03-07T01:33:59;32.22;;;16.00;;
74894;SDS011;63447;49.446;8.666;2024-03-07T01:36:25;36.92;;;17.20;;
74894;SDS011;63447;49.446;8.666;2024-03-07T01:38:50;35.23;;;17.40;;
74894;SDS011;63447;49.446;8.666;2024-03-07T01:41:17;33.22;;;16.25;;
74894;SDS011;63447;49.446;8.666;2024-03-07T01:43:45;35.50;;;17.80;;
74894;SDS011;63447;49.446;8.666;2024-03-07T01:46:11;31.27;;;15.82;;
74894;SDS011;63447;49.446;8.666;2024-03-07T01:48:37;31.75;;;16.15;;
74894;SDS011;63447;49.446;8.666;2024-03-07T01:51:08;34.47;;;17.30;;
74894;SDS011;63447;49.446;8.666;2024-03-07T01:53:34;34.55;;;17.15;;
74894;SDS011;63447;49.446;8.666;2024-03-07T01:55:59;33.90;;;16.97;;
74894;SDS011;63447;49.446;8.666;2024-03-07T01:58:29;34.25;;;17.48;;
74894;SDS011;63447;49.446;8.666;2024-03-07T02:00:56;35.65;;;17.52;;
74894;SDS011;63447;49.446;8.666;2024-03-07T02:03:23;34.40;;;16.55;;
74894;SDS011;63447;49.446;8.666;2024-03-07T02:05:48;35.37;;;17.33;;
74894;SDS011;63447;49.446;8.666;2024-03-07T02:08:13;32.00;;;16.73;;
74894;SDS011;63447;49.446;8.666;2024-03-07T02:10:44;31.92;;;16.75;;
74894;SDS011;63447;49.446;8.666;2024-03-07T02:13:11;30.50;;;16.30;;
74894;SDS011;63447;49.446;8.666;2024-03-07T02:15:37;34.55;;;16.33;;
74894;SDS011;63447;49.446;8.666;2024-03-07T02:18:06;34.25;;;17.60;;
74894;SDS011;63447;49.446;8.666;2024-03-07T02:20:31;33.50;;;17.25;;
74894;SDS011;63447;49.446;8.666;2024-03-07T02:22:59;35.90;;;18.00;;
74894;SDS011;63447;49.446;8.666;2024-03-07T02:25:28;33.97;;;16.42;;
74894;SDS011;63447;49.446;8.666;2024-03-07T02:27:57;30.98;;;15.80;;
74894;SDS011;63447;49.446;8.666;2024-03-07T02:30:29;30.10;;;16.45;;
74894;SDS011;63447;49.446;8.666;2024-03-07T02:32:57;30.48;;;16.40;;
74894;SDS011;63447;49.446;8.666;2024-03-07T02:35:34;32.38;;;16.98;;
74894;SDS011;63447;49.446;8.666;2024-03-07T02:38:00;33.13;;;16.35;;
74894;SDS011;63447;49.446;8.666;2024-03-07T02:40:29;29.48;;;15.10;;
74894;SDS011;63447;49.446;8.666;2024-03-07T02:42:54;32.15;;;15.88;;
74894;SDS011;63447;49.446;8.666;2024-03-07T02:45:23;32.13;;;15.38;;
74894;SDS011;63447;49.446;8.666;2024-03-07T02:47:51;30.33;;;15.68;;
74894;SDS011;63447;49.446;8.666;2024-03-07T02:50:21;31.48;;;16.02;;
74894;SDS011;63447;49.446;8.666;2024-03-07T02:52:49;28.52;;;15.57;;
74894;SDS011;63447;49.446;8.666;2024-03-07T02:55:17;32.83;;;16.73;;
74894;SDS011;63447;49.446;8.666;2024-03-07T02:57:46;31.42;;;15.93;;
74894;SDS011;63447;49.446;8.666;2024-03-07T03:00:14;32.42;;;16.92;;
74894;SDS011;63447;49.446;8.666;2024-03-07T03:02:46;32.13;;;16.23;;
74894;SDS011;63447;49.446;8.666;2024-03-07T03:05:14;37.83;;;17.10;;
74894;SDS011;63447;49.446;8.666;2024-03-07T03:07:43;33.38;;;16.48;;
74894;SDS011;63447;49.446;8.666;2024-03-07T03:10:18;31.05;;;15.98;;
74894;SDS011;63447;49.446;8.666;2024-03-07T03:12:52;32.15;;;15.90;;
74894;SDS011;63447;49.446;8.666;2024-03-07T03:15:19;32.63;;;15.52;;
74894;SDS011;63447;49.446;8.666;2024-03-07T03:17:45;33.50;;;15.80;;
74894;SDS011;63447;49.446;8.666;2024-03-07T03:20:13;33.22;;;15.43;;
74894;SDS011;63447;49.446;8.666;2024-03-07T03:23:05;32.88;;;15.55;;
74894;SDS011;63447;49.446;8.666;2024-03-07T03:25:34;30.95;;;15.98;;
74894;SDS011;63447;49.446;8.666;2024-03-07T03:28:03;32.80;;;16.75;;
74894;SDS011;63447;49.446;8.666;2024-03-07T03:30:34;26.55;;;14.55;;
74894;SDS011;63447;49.446;8.666;2024-03-07T03:33:05;33.30;;;17.80;;
74894;SDS011;63447;49.446;8.666;2024-03-07T03:35:39;28.48;;;14.75;;
74894;SDS011;63447;49.446;8.666;2024-03-07T03:38:05;31.77;;;16.05;;
74894;SDS011;63447;49.446;8.666;2024-03-07T03:40:35;31.00;;;15.25;;
74894;SDS011;63447;49.446;8.666;2024-03-07T03:43:01;28.15;;;14.60;;
74894;SDS011;63447;49.446;8.666;2024-03-07T03:45:29;28.88;;;13.82;;
74894;SDS011;63447;49.446;8.666;2024-03-07T03:47:57;27.58;;;14.48;;
74894;SDS011;63447;49.446;8.666;2024-03-07T03:50:22;29.88;;;14.90;;
74894;SDS011;63447;49.446;8.666;2024-03-07T03:52:53;28.38;;;14.70;;
74894;SDS011;63447;49.446;8.666;2024-03-07T03:55:22;27.98;;;13.65;;
74894;SDS011;63447;49.446;8.666;2024-03-07T03:57:47;28.73;;;15.10;;
74894;SDS011;63447;49.446;8.666;2024-03-07T04:00:16;27.58;;;14.65;;
74894;SDS011;63447;49.446;8.666;2024-03-07T04:05:19;27.42;;;14.02;;
74894;SDS011;63447;49.446;8.666;2024-03-07T04:07:45;26.90;;;13.70;;
74894;SDS011;63447;49.446;8.666;2024-03-07T04:10:11;29.30;;;14.40;;
74894;SDS011;63447;49.446;8.666;2024-03-07T04:12:38;26.23;;;13.57;;
74894;SDS011;63447;49.446;8.666;2024-03-07T04:15:07;25.33;;;14.00;;
74894;SDS011;63447;49.446;8.666;2024-03-07T04:17:37;26.58;;;12.90;;
74894;SDS011;63447;49.446;8.666;2024-03-07T04:20:07;27.58;;;14.15;;
74894;SDS011;63447;49.446;8.666;2024-03-07T04:22:38;25.80;;;13.32;;
74894;SDS011;63447;49.446;8.666;2024-03-07T04:25:04;28.42;;;13.70;;
74894;SDS011;63447;49.446;8.666;2024-03-07T04:27:34;27.08;;;13.80;;
74894;SDS011;63447;49.446;8.666;2024-03-07T04:30:06;25.00;;;12.38;;
74894;SDS011;63447;49.446;8.666;2024-03-07T04:32:40;24.73;;;13.02;;
74894;SDS011;63447;49.446;8.666;2024-03-07T04:35:08;24.63;;;13.20;;
74894;SDS011;63447;49.446;8.666;2024-03-07T04:37:38;25.50;;;13.63;;
74894;SDS011;63447;49.446;8.666;2024-03-07T04:40:07;29.00;;;13.77;;
74894;SDS011;63447;49.446;8.666;2024-03-07T04:42:43;28.65;;;13.95;;
74894;SDS011;63447;49.446;8.666;2024-03-07T04:45:15;26.08;;;13.05;;
74894;SDS011;63447;49.446;8.666;2024-03-07T04:47:44;26.50;;;13.90;;
74894;SDS011;63447;49.446;8.666;2024-03-07T04:50:13;26.50;;;12.60;;
74894;SDS011;63447;49.446;8.666;2024-03-07T04:52:43;28.60;;;13.77;;
74894;SDS011;63447;49.446;8.666;2024-03-07T04:55:10;28.80;;;13.90;;
74894;SDS011;63447;49.446;8.666;2024-03-07T04:57:38;27.52;;;13.05;;
74894;SDS011;63447;49.446;8.666;2024-03-07T05:00:10;27.20;;;12.88;;
74894;SDS011;63447;49.446;8.666;2024-03-07T05:02:42;25.48;;;13.40;;
74894;SDS011;63447;49.446;8.666;2024-03-07T05:05:08;26.85;;;13.27;;
74894;SDS011;63447;49.446;8.666;2024-03-07T05:07:34;26.58;;;12.38;;
74894;SDS011;63447;49.446;8.666;2024-03-07T05:10:07;28.00;;;13.85;;
74894;SDS011;63447;49.446;8.666;2024-03-07T05:12:35;25.52;;;13.57;;
74894;SDS011;63447;49.446;8.666;2024-03-07T05:15:01;25.77;;;12.10;;
74894;SDS011;63447;49.446;8.666;2024-03-07T05:17:29;25.40;;;13.07;;
74894;SDS011;63447;49.446;8.666;2024-03-07T05:19:58;25.40;;;12.40;;
74894;SDS011;63447;49.446;8.666;2024-03-07T05:22:28;23.92;;;12.63;;
74894;SDS011;63447;49.446;8.666;2024-03-07T05:24:55;24.35;;;12.40;;
74894;SDS011;63447;49.446;8.666;2024-03-07T05:27:23;25.83;;;12.60;;
74894;SDS011;63447;49.446;8.666;2024-03-07T05:29:52;22.08;;;11.50;;
74894;SDS011;63447;49.446;8.666;2024-03-07T05:32:23;23.98;;;11.50;;
74894;SDS011;63447;49.446;8.666;2024-03-07T05:34:54;22.00;;;11.15;;
74894;SDS011;63447;49.446;8.666;2024-03-07T05:37:22;25.48;;;11.77;;
74894;SDS011;63447;49.446;8.666;2024-03-07T05:39:48;25.27;;;12.63;;
74894;SDS011;63447;49.446;8.666;2024-03-07T05:42:14;24.02;;;12.25;;
74894;SDS011;63447;49.446;8.666;2024-03-07T05:47:06;21.67;;;11.50;;
74894;SDS011;63447;49.446;8.666;2024-03-07T05:49:34;26.10;;;12.85;;
74894;SDS011;63447;49.446;8.666;2024-03-07T05:52:01;23.15;;;12.15;;
74894;SDS011;63447;49.446;8.666;2024-03-07T05:54:34;24.67;;;12.05;;
74894;SDS011;63447;49.446;8.666;2024-03-07T05:57:02;23.17;;;12.07;;
74894;SDS011;63447;49.446;8.666;2024-03-07T05:59:31;23.98;;;11.88;;
74894;SDS011;63447;49.446;8.666;2024-03-07T06:01:57;24.42;;;12.32;;
74894;SDS011;63447;49.446;8.666;2024-03-07T06:06:48;24.93;;;12.23;;
74894;SDS011;63447;49.446;8.666;2024-03-07T06:11:46;25.17;;;12.30;;
74894;SDS011;63447;49.446;8.666;2024-03-07T06:14:17;23.05;;;12.15;;
74894;SDS011;63447;49.446;8.666;2024-03-07T06:16:43;25.50;;;11.93;;
74894;SDS011;63447;49.446;8.666;2024-03-07T06:21:36;26.02;;;12.80;;
74894;SDS011;63447;49.446;8.666;2024-03-07T06:24:04;24.23;;;12.90;;
74894;SDS011;63447;49.446;8.666;2024-03-07T06:26:34;25.45;;;13.13;;
74894;SDS011;63447;49.446;8.666;2024-03-07T06:29:08;21.13;;;12.02;;
74894;SDS011;63447;49.446;8.666;2024-03-07T06:31:36;23.80;;;12.27;;
74894;SDS011;63447;49.446;8.666;2024-03-07T06:36:27;26.55;;;11.88;;
74894;SDS011;63447;49.446;8.666;2024-03-07T06:41:20;23.53;;;10.87;;
74894;SDS011;63447;49.446;8.666;2024-03-07T06:43:50;22.48;;;10.73;;
74894;SDS011;63447;49.446;8.666;2024-03-07T06:46:20;24.05;;;12.38;;
74894;SDS011;63447;49.446;8.666;2024-03-07T06:48:49;23.23;;;12.05;;
74894;SDS011;63447;49.446;8.666;2024-03-07T06:51:14;22.92;;;11.68;;
74894;SDS011;63447;49.446;8.666;2024-03-07T06:53:43;23.92;;;12.55;;
74894;SDS011;63447;49.446;8.666;2024-03-07T06:58:33;24.17;;;11.50;;
74894;SDS011;63447;49.446;8.666;2024-03-07T07:03:26;24.00;;;11.23;;
74894;SDS011;63447;49.446;8.666;2024-03-07T07:05:54;24.38;;;11.52;;
74894;SDS011;63447;49.446;8.666;2024-03-07T07:08:20;25.43;;;12.93;;
74894;SDS011;63447;49.446;8.666;2024-03-07T07:10:48;22.92;;;12.05;;
74894;SDS011;63447;49.446;8.666;2024-03-07T07:13:15;24.42;;;12.18;;
74894;SDS011;63447;49.446;8.666;2024-03-07T07:15:41;23.70;;;11.82;;
74894;SDS011;63447;49.446;8.666;2024-03-07T07:18:12;26.83;;;13.35;;
74894;SDS011;63447;49.446;8.666;2024-03-07T07:20:38;25.75;;;13.88;;
74894;SDS011;63447;49.446;8.666;2024-03-07T07:23:04;28.50;;;14.13;;
74894;SDS011;63447;49.446;8.666;2024-03-07T07:25:31;27.45;;;14.15;;
74894;SDS011;63447;49.446;8.666;2024-03-07T07:27:59;26.55;;;14.07;;
74894;SDS011;63447;49.446;8.666;2024-03-07T07:30:25;27.38;;;13.60;;
74894;SDS011;63447;49.446;8.666;2024-03-07T07:32:53;25.42;;;12.60;;
74894;SDS011;63447;49.446;8.666;2024-03-07T07:35:21;25.23;;;12.98;;
74894;SDS011;63447;49.446;8.666;2024-03-07T07:37:47;26.42;;;13.23;;
74894;SDS011;63447;49.446;8.666;2024-03-07T07:40:20;26.73;;;12.63;;
74894;SDS011;63447;49.446;8.666;2024-03-07T07:42:50;24.52;;;13.30;;
74894;SDS011;63447;49.446;8.666;2024-03-07T07:45:17;24.90;;;13.13;;
74894;SDS011;63447;49.446;8.666;2024-03-07T07:47:47;27.52;;;14.85;;
74894;SDS011;63447;49.446;8.666;2024-03-07T07:50:17;26.10;;;12.90;;
74894;SDS011;63447;49.446;8.666;2024-03-07T07:52:47;26.60;;;14.65;;
74894;SDS011;63447;49.446;8.666;2024-03-07T07:55:14;26.08;;;13.40;;
74894;SDS011;63447;49.446;8.666;2024-03-07T07:57:44;27.27;;;14.05;;
74894;SDS011;63447;49.446;8.666;2024-03-07T08:00:15;26.88;;;13.02;;
74894;SDS011;63447;49.446;8.666;2024-03-07T08:05:17;29.83;;;14.38;;
74894;SDS011;63447;49.446;8.666;2024-03-07T08:07:48;25.52;;;12.52;;
74894;SDS011;63447;49.446;8.666;2024-03-07T08:10:19;27.40;;;14.25;;
74894;SDS011;63447;49.446;8.666;2024-03-07T08:12:48;26.67;;;13.57;;
74894;SDS011;63447;49.446;8.666;2024-03-07T08:15:16;27.10;;;13.52;;
74894;SDS011;63447;49.446;8.666;2024-03-07T08:17:44;27.05;;;13.27;;
74894;SDS011;63447;49.446;8.666;2024-03-07T08:20:15;21.65;;;11.93;;
74894;SDS011;63447;49.446;8.666;2024-03-07T08:22:46;26.00;;;13.88;;
74894;SDS011;63447;49.446;8.666;2024-03-07T08:25:16;24.95;;;12.30;;
74894;SDS011;63447;49.446;8.666;2024-03-07T08:27:45;23.48;;;12.65;;
74894;SDS011;63447;49.446;8.666;2024-03-07T08:30:15;26.70;;;13.63;;
74894;SDS011;63447;49.446;8.666;2024-03-07T08:32:49;25.45;;;13.15;;
74894;SDS011;63447;49.446;8.666;2024-03-07T08:35:20;23.58;;;12.57;;
74894;SDS011;63447;49.446;8.666;2024-03-07T08:37:49;21.80;;;12.15;;
74894;SDS011;63447;49.446;8.666;2024-03-07T08:40:20;22.60;;;11.30;;
74894;SDS011;63447;49.446;8.666;2024-03-07T08:42:47;22.63;;;11.20;;
74894;SDS011;63447;49.446;8.666;2024-03-07T08:45:16;19.98;;;11.40;;
74894;SDS011;63447;49.446;8.666;2024-03-07T08:47:45;20.00;;;10.98;;
74894;SDS011;63447;49.446;8.666;2024-03-07T08:50:11;24.52;;;12.40;;
74894;SDS011;63447;49.446;8.666;2024-03-07T08:52:38;18.83;;;10.60;;
74894;SDS011;63447;49.446;8.666;2024-03-07T08:55:14;18.52;;;10.05;;
74894;SDS011;63447;49.446;8.666;2024-03-07T08:57:41;20.13;;;9.98;;
74894;SDS011;63447;49.446;8.666;2024-03-07T09:00:11;17.85;;;10.27;;
74894;SDS011;63447;49.446;8.666;2024-03-07T09:02:41;21.42;;;10.80;;
74894;SDS011;63447;49.446;8.666;2024-03-07T09:05:09;19.02;;;10.10;;
74894;SDS011;63447;49.446;8.666;2024-03-07T09:07:40;20.23;;;10.90;;
74894;SDS011;63447;49.446;8.666;2024-03-07T09:10:05;19.80;;;11.35;;
74894;SDS011;63447;49.446;8.666;2024-03-07T09:12:39;18.80;;;10.38;;
74894;SDS011;63447;49.446;8.666;2024-03-07T09:15:04;18.45;;;10.02;;
74894;SDS011;63447;49.446;8.666;2024-03-07T09:17:29;18.45;;;10.10;;
74894;SDS011;63447;49.446;8.666;2024-03-07T09:20:00;21.02;;;10.35;;
74894;SDS011;63447;49.446;8.666;2024-03-07T09:22:25;18.83;;;10.63;;
74894;SDS011;63447;49.446;8.666;2024-03-07T09:24:51;19.27;;;10.63;;
74894;SDS011;63447;49.446;8.666;2024-03-07T09:27:18;18.02;;;10.45;;
74894;SDS011;63447;49.446;8.666;2024-03-07T09:29:46;18.45;;;10.38;;
74894;SDS011;63447;49.446;8.666;2024-03-07T09:32:20;19.10;;;11.07;;
74894;SDS011;63447;49.446;8.666;2024-03-07T09:34:47;20.92;;;11.02;;
74894;SDS011;63447;49.446;8.666;2024-03-07T09:37:15;19.70;;;11.00;;
74894;SDS011;63447;49.446;8.666;2024-03-07T09:39:42;20.48;;;10.82;;
74894;SDS011;63447;49.446;8.666;2024-03-07T09:42:11;20.00;;;11.30;;
74894;SDS011;63447;49.446;8.666;2024-03-07T09:44:38;20.42;;;10.93;;
74894;SDS011;63447;49.446;8.666;2024-03-07T09:47:07;23.67;;;12.18;;
74894;SDS011;63447;49.446;8.666;2024-03-07T09:49:38;22.42;;;11.85;;
74894;SDS011;63447;49.446;8.666;2024-03-07T09:52:07;20.55;;;10.52;;
74894;SDS011;63447;49.446;8.666;2024-03-07T09:54:38;20.55;;;11.60;;
74894;SDS011;63447;49.446;8.666;2024-03-07T09:57:06;22.27;;;11.95;;
74894;SDS011;63447;49.446;8.666;2024-03-07T09:59:35;21.17;;;11.07;;
74894;SDS011;63447;49.446;8.666;2024-03-07T10:02:03;20.58;;;10.77;;
74894;SDS011;63447;49.446;8.666;2024-03-07T10:04:38;21.77;;;11.05;;
74894;SDS011;63447;49.446;8.666;2024-03-07T10:07:15;21.63;;;11.18;;
74894;SDS011;63447;49.446;8.666;2024-03-07T10:09:44;20.83;;;10.98;;
74894;SDS011;63447;49.446;8.666;2024-03-07T10:12:12;22.33;;;12.07;;
74894;SDS011;63447;49.446;8.666;2024-03-07T10:14:47;19.80;;;10.65;;
74894;SDS011;63447;49.446;8.666;2024-03-07T10:17:14;21.33;;;11.35;;
74894;SDS011;63447;49.446;8.666;2024-03-07T10:19:42;22.90;;;11.52;;
74894;SDS011;63447;49.446;8.666;2024-03-07T10:22:14;20.80;;;11.38;;
74894;SDS011;63447;49.446;8.666;2024-03-07T10:24:39;23.15;;;11.95;;
74894;SDS011;63447;49.446;8.666;2024-03-07T10:27:05;20.00;;;10.93;;
74894;SDS011;63447;49.446;8.666;2024-03-07T10:29:35;19.70;;;10.82;;
74894;SDS011;63447;49.446;8.666;2024-03-07T10:32:10;22.52;;;11.75;;
74894;SDS011;63447;49.446;8.666;2024-03-07T10:34:37;20.95;;;11.70;;
74894;SDS011;63447;49.446;8.666;2024-03-07T10:37:13;20.83;;;11.68;;
74894;SDS011;63447;49.446;8.666;2024-03-07T10:39:45;20.50;;;11.55;;
74894;SDS011;63447;49.446;8.666;2024-03-07T10:42:14;18.20;;;10.77;;
74894;SDS011;63447;49.446;8.666;2024-03-07T10:44:43;19.27;;;11.48;;
74894;SDS011;63447;49.446;8.666;2024-03-07T10:47:11;19.75;;;11.48;;
74894;SDS011;63447;49.446;8.666;2024-03-07T10:52:20;19.40;;;11.05;;
74894;SDS011;63447;49.446;8.666;2024-03-07T11:00:12;20.65;;;12.13;;
74894;SDS011;63447;49.446;8.666;2024-03-07T11:02:55;20.50;;;11.43;;
74894;SDS011;63447;49.446;8.666;2024-03-07T11:05:21;21.00;;;11.50;;
74894;SDS011;63447;49.446;8.666;2024-03-07T11:07:49;19.17;;;10.73;;
74894;SDS011;63447;49.446;8.666;2024-03-07T11:10:21;20.95;;;11.10;;
74894;SDS011;63447;49.446;8.666;2024-03-07T11:12:47;20.63;;;12.43;;
74894;SDS011;63447;49.446;8.666;2024-03-07T11:15:16;20.48;;;11.48;;
74894;SDS011;63447;49.446;8.666;2024-03-07T11:17:46;21.48;;;11.85;;
74894;SDS011;63447;49.446;8.666;2024-03-07T11:22:45;22.13;;;12.20;;
74894;SDS011;63447;49.446;8.666;2024-03-07T11:25:22;22.25;;;12.15;;
74894;SDS011;63447;49.446;8.666;2024-03-07T11:27:57;20.70;;;11.77;;
74894;SDS011;63447;49.446;8.666;2024-03-07T11:30:24;20.20;;;11.38;;
74894;SDS011;63447;49.446;8.666;2024-03-07T11:32:50;22.50;;;12.70;;
74894;SDS011;63447;49.446;8.666;2024-03-07T11:35:30;19.92;;;12.02;;
74894;SDS011;63447;49.446;8.666;2024-03-07T11:38:00;19.90;;;10.65;;
74894;SDS011;63447;49.446;8.666;2024-03-07T11:42:57;19.92;;;11.57;;
74894;SDS011;63447;49.446;8.666;2024-03-07T11:45:25;20.42;;;11.50;;
74894;SDS011;63447;49.446;8.666;2024-03-07T11:47:51;20.23;;;11.70;;
74894;SDS011;63447;49.446;8.666;2024-03-07T11:50:34;22.35;;;11.80;;
74894;SDS011;63447;49.446;8.666;2024-03-07T11:53:03;19.60;;;10.82;;
74894;SDS011;63447;49.446;8.666;2024-03-07T11:55:36;20.52;;;11.93;;
74894;SDS011;63447;49.446;8.666;2024-03-07T11:58:16;22.55;;;12.18;;
74894;SDS011;63447;49.446;8.666;2024-03-07T12:00:46;19.48;;;10.60;;
74894;SDS011;63447;49.446;8.666;2024-03-07T12:03:16;17.67;;;10.43;;
74894;SDS011;63447;49.446;8.666;2024-03-07T12:05:47;20.38;;;10.55;;
74894;SDS011;63447;49.446;8.666;2024-03-07T12:08:13;17.58;;;10.23;;
74894;SDS011;63447;49.446;8.666;2024-03-07T12:10:40;18.23;;;10.07;;
74894;SDS011;63447;49.446;8.666;2024-03-07T12:13:10;15.98;;;9.77;;
74894;SDS011;63447;49.446;8.666;2024-03-07T12:15:40;18.30;;;10.40;;
74894;SDS011;63447;49.446;8.666;2024-03-07T12:18:05;18.00;;;10.55;;
74894;SDS011;63447;49.446;8.666;2024-03-07T12:20:38;18.20;;;10.20;;
74894;SDS011;63447;49.446;8.666;2024-03-07T12:23:06;16.42;;;9.35;;
74894;SDS011;63447;49.446;8.666;2024-03-07T12:25:36;15.18;;;9.70;;
74894;SDS011;63447;49.446;8.666;2024-03-07T12:28:08;15.98;;;9.88;;
74894;SDS011;63447;49.446;8.666;2024-03-07T12:30:37;16.50;;;10.02;;
74894;SDS011;63447;49.446;8.666;2024-03-07T12:33:14;18.42;;;10.25;;
74894;SDS011;63447;49.446;8.666;2024-03-07T12:35:42;17.67;;;9.65;;
74894;SDS011;63447;49.446;8.666;2024-03-07T12:38:08;16.85;;;9.45;;
74894;SDS011;63447;49.446;8.666;2024-03-07T12:40:40;16.77;;;10.05;;
74894;SDS011;63447;49.446;8.666;2024-03-07T12:43:18;17.92;;;9.48;;
74894;SDS011;63447;49.446;8.666;2024-03-07T12:45:48;15.75;;;9.57;;
74894;SDS011;63447;49.446;8.666;2024-03-07T12:48:14;15.90;;;9.50;;
74894;SDS011;63447;49.446;8.666;2024-03-07T12:50:41;16.55;;;9.00;;
74894;SDS011;63447;49.446;8.666;2024-03-07T12:53:09;15.73;;;9.18;;
74894;SDS011;63447;49.446;8.666;2024-03-07T12:55:40;15.48;;;8.80;;
74894;SDS011;63447;49.446;8.666;2024-03-07T12:58:09;15.30;;;8.93;;
74894;SDS011;63447;49.446;8.666;2024-03-07T13:00:37;16.35;;;9.60;;
74894;SDS011;63447;49.446;8.666;2024-03-07T13:03:08;14.85;;;8.88;;
74894;SDS011;63447;49.446;8.666;2024-03-07T13:05:39;17.35;;;9.55;;
74894;SDS011;63447;49.446;8.666;2024-03-07T13:08:14;15.10;;;8.35;;
74894;SDS011;63447;49.446;8.666;2024-03-07T13:10:41;16.23;;;9.40;;
74894;SDS011;63447;49.446;8.666;2024-03-07T13:13:07;15.27;;;9.35;;
74894;SDS011;63447;49.446;8.666;2024-03-07T13:15:38;14.77;;;8.82;;
74894;SDS011;63447;49.446;8.666;2024-03-07T13:18:06;15.32;;;8.70;;
74894;SDS011;63447;49.446;8.666;2024-03-07T13:20:33;15.77;;;9.27;;
74894;SDS011;63447;49.446;8.666;2024-03-07T13:23:01;14.85;;;9.27;;
74894;SDS011;63447;49.446;8.666;2024-03-07T13:25:28;14.48;;;8.82;;
74894;SDS011;63447;49.446;8.666;2024-03-07T13:28:12;14.20;;;8.95;;
74894;SDS011;63447;49.446;8.666;2024-03-07T13:30:41;16.58;;;9.75;;
74894;SDS011;63447;49.446;8.666;2024-03-07T13:33:13;15.10;;;9.18;;
74894;SDS011;63447;49.446;8.666;2024-03-07T13:35:39;16.20;;;9.98;;
74894;SDS011;63447;49.446;8.666;2024-03-07T13:38:05;15.15;;;9.55;;
74894;SDS011;63447;49.446;8.666;2024-03-07T13:40:32;17.75;;;10.27;;
74894;SDS011;63447;49.446;8.666;2024-03-07T13:43:03;15.35;;;8.88;;
74894;SDS011;63447;49.446;8.666;2024-03-07T13:45:30;15.93;;;9.38;;
74894;SDS011;63447;49.446;8.666;2024-03-07T13:47:56;16.70;;;9.75;;
74894;SDS011;63447;49.446;8.666;2024-03-07T13:50:27;16.48;;;9.27;;
74894;SDS011;63447;49.446;8.666;2024-03-07T13:52:54;14.32;;;8.63;;
74894;SDS011;63447;49.446;8.666;2024-03-07T13:58:12;15.80;;;9.27;;
74894;SDS011;63447;49.446;8.666;2024-03-07T14:04:00;16.33;;;9.02;;
74894;SDS011;63447;49.446;8.666;2024-03-07T14:17:52;13.93;;;8.00;;
74894;SDS011;63447;49.446;8.666;2024-03-07T14:32:08;14.32;;;8.27;;
74894;SDS011;63447;49.446;8.666;2024-03-07T14:34:41;16.65;;;8.88;;
74894;SDS011;63447;49.446;8.666;2024-03-07T14:37:19;16.23;;;8.73;;
74894;SDS011;63447;49.446;8.666;2024-03-07T14:39:49;16.58;;;8.65;;
74894;SDS011;63447;49.446;8.666;2024-03-07T14:42:17;16.48;;;8.52;;
74894;SDS011;63447;49.446;8.666;2024-03-07T14:44:47;15.60;;;9.18;;
74894;SDS011;63447;49.446;8.666;2024-03-07T14:47:19;14.23;;;8.35;;
74894;SDS011;63447;49.446;8.666;2024-03-07T14:49:45;12.93;;;8.23;;
74894;SDS011;63447;49.446;8.666;2024-03-07T14:52:15;14.35;;;8.50;;
74894;SDS011;63447;49.446;8.666;2024-03-07T14:54:42;16.65;;;9.43;;
74894;SDS011;63447;49.446;8.666;2024-03-07T14:57:07;20.17;;;11.73;;
74894;SDS011;63447;49.446;8.666;2024-03-07T14:59:35;16.52;;;8.85;;
74894;SDS011;63447;49.446;8.666;2024-03-07T15:02:01;15.13;;;8.60;;
74894;SDS011;63447;49.446;8.666;2024-03-07T15:04:30;15.57;;;8.90;;
74894;SDS011;63447;49.446;8.666;2024-03-07T15:06:57;14.88;;;8.45;;
74894;SDS011;63447;49.446;8.666;2024-03-07T15:09:27;15.00;;;8.50;;
74894;SDS011;63447;49.446;8.666;2024-03-07T15:11:55;17.38;;;8.45;;
74894;SDS011;63447;49.446;8.666;2024-03-07T15:14:20;13.02;;;7.45;;
74894;SDS011;63447;49.446;8.666;2024-03-07T15:16:48;15.23;;;8.52;;
74894;SDS011;63447;49.446;8.666;2024-03-07T15:19:14;17.95;;;9.25;;
74894;SDS011;63447;49.446;8.666;2024-03-07T15:21:40;16.83;;;9.25;;
74894;SDS011;63447;49.446;8.666;2024-03-07T15:24:05;14.93;;;9.00;;
74894;SDS011;63447;49.446;8.666;2024-03-07T15:26:31;15.57;;;8.35;;
74894;SDS011;63447;49.446;8.666;2024-03-07T15:28:57;16.80;;;9.40;;
74894;SDS011;63447;49.446;8.666;2024-03-07T15:31:23;16.83;;;8.98;;
74894;SDS011;63447;49.446;8.666;2024-03-07T15:33:49;14.65;;;8.60;;
74894;SDS011;63447;49.446;8.666;2024-03-07T15:36:16;14.48;;;8.18;;
74894;SDS011;63447;49.446;8.666;2024-03-07T15:38:47;15.20;;;9.13;;
74894;SDS011;63447;49.446;8.666;2024-03-07T15:41:13;17.35;;;8.75;;